createdAt,value
2017-12-01T00:00:56.730Z,91.70
2017-12-01T00:05:57.486Z,91.75
2017-12-01T00:10:58.245Z,91.94
2017-12-01T00:15:59.052Z,91.52
2017-12-01T00:20:59.851Z,91.97
2017-12-01T00:26:00.634Z,91.52
2017-12-01T00:31:01.429Z,91.27
2017-12-01T00:36:02.213Z,91.93
2017-12-01T00:41:03.028Z,91.63
2017-12-01T00:46:03.817Z,91.67
2017-12-01T00:51:04.601Z,92.21
2017-12-01T00:56:05.364Z,92.34
2017-12-01T01:01:06.201Z,92.32
2017-12-01T01:06:07.018Z,92.24
2017-12-01T01:11:07.825Z,92.28
2017-12-01T01:16:08.620Z,92.30
2017-12-01T01:21:09.437Z,92.32
2017-12-01T01:26:10.222Z,92.43
2017-12-01T01:31:11.001Z,91.61
2017-12-01T01:36:11.797Z,91.80
2017-12-01T01:41:12.560Z,92.10
2017-12-01T01:46:13.363Z,91.75
2017-12-01T01:51:14.134Z,91.50
2017-12-01T01:56:14.934Z,91.49
2017-12-01T02:01:15.747Z,92.11
2017-12-01T02:06:16.532Z,92.30
2017-12-01T02:11:17.311Z,91.41
2017-12-01T02:16:19.049Z,91.59
2017-12-01T02:21:19.841Z,92.00
2017-12-01T02:26:20.647Z,91.85
2017-12-01T02:31:21.439Z,91.99
2017-12-01T02:36:22.238Z,91.64
2017-12-01T02:41:23.093Z,91.25
2017-12-01T02:46:23.890Z,91.32
2017-12-01T02:51:24.710Z,90.98
2017-12-01T02:56:25.515Z,90.16
2017-12-01T03:01:26.341Z,90.80
2017-12-01T03:06:27.184Z,91.69
2017-12-01T03:11:27.981Z,92.36
2017-12-01T03:16:28.777Z,92.73
2017-12-01T03:21:29.561Z,93.16
2017-12-01T03:26:30.390Z,93.34
2017-12-01T03:31:31.220Z,93.74
2017-12-01T03:36:32.060Z,93.87
2017-12-01T03:41:32.865Z,93.89
2017-12-01T03:46:33.694Z,94.08
2017-12-01T03:51:35.245Z,94.80
2017-12-01T03:56:36.032Z,95.25
2017-12-01T04:01:36.835Z,95.38
2017-12-01T04:06:37.678Z,95.73
2017-12-01T04:11:38.469Z,95.51
2017-12-01T04:16:39.281Z,95.68
2017-12-01T04:21:40.084Z,95.87
2017-12-01T04:26:40.877Z,95.70
2017-12-01T04:31:41.674Z,95.63
2017-12-01T04:36:42.453Z,95.82
2017-12-01T04:41:43.237Z,95.82
2017-12-01T04:46:44.024Z,95.80
2017-12-01T04:51:44.816Z,95.89
2017-12-01T04:56:45.600Z,95.86
2017-12-01T05:01:46.411Z,96.19
2017-12-01T05:06:47.243Z,96.21
2017-12-01T05:11:48.028Z,96.32
2017-12-01T05:16:48.830Z,96.14
2017-12-01T05:21:49.621Z,95.71
2017-12-01T05:26:50.405Z,95.53
2017-12-01T05:31:51.197Z,95.49
2017-12-01T05:36:51.989Z,95.55
2017-12-01T05:41:52.802Z,95.83
2017-12-01T05:46:53.619Z,96.06
2017-12-01T05:51:54.416Z,96.15
2017-12-01T05:56:55.209Z,96.20
2017-12-01T06:01:56.017Z,96.02
2017-12-01T06:06:56.809Z,95.72
2017-12-01T06:11:57.647Z,95.56
2017-12-01T06:16:58.449Z,95.55
2017-12-01T06:21:59.221Z,95.58
2017-12-01T06:27:00.005Z,95.58
2017-12-01T06:32:00.798Z,95.59
2017-12-01T06:37:01.585Z,95.81
2017-12-01T06:42:02.370Z,95.77
2017-12-01T06:47:03.155Z,95.69
2017-12-01T06:52:03.921Z,95.38
2017-12-01T06:57:04.701Z,95.22
2017-12-01T07:02:05.504Z,95.03
2017-12-01T07:07:06.317Z,94.30
2017-12-01T07:12:07.164Z,92.85
2017-12-01T07:17:07.905Z,92.94
2017-12-01T07:22:08.711Z,92.66
2017-12-01T07:27:09.540Z,92.49
2017-12-01T07:32:10.315Z,91.73
2017-12-01T07:37:11.093Z,92.40
2017-12-01T07:42:15.213Z,91.44
2017-12-01T07:47:16.005Z,91.23
2017-12-01T07:52:17.621Z,90.27
2017-12-01T07:57:18.393Z,90.11
2017-12-01T08:02:19.190Z,89.79
2017-12-01T08:07:19.978Z,89.68
2017-12-01T08:12:20.750Z,88.81
2017-12-01T08:17:28.468Z,88.39
2017-12-01T08:22:41.529Z,87.73
2017-12-01T08:27:42.347Z,86.86
2017-12-01T08:32:43.142Z,85.73
2017-12-01T08:37:43.923Z,85.21
2017-12-01T08:42:44.701Z,84.64
2017-12-01T08:47:45.481Z,81.46
2017-12-01T08:52:46.253Z,83.47
2017-12-01T08:57:47.021Z,81.70
2017-12-01T09:02:47.809Z,81.51
2017-12-01T09:07:48.582Z,79.47
2017-12-01T09:13:00.069Z,80.20
2017-12-01T09:18:00.899Z,78.99
2017-12-01T09:23:01.708Z,80.21
2017-12-01T09:28:02.531Z,79.68
2017-12-01T09:33:03.318Z,80.26
2017-12-01T09:38:04.080Z,78.13
2017-12-01T09:43:04.876Z,76.82
2017-12-01T09:48:05.665Z,79.13
2017-12-01T09:53:06.474Z,79.14
2017-12-01T09:58:07.254Z,78.43
2017-12-01T10:03:08.047Z,76.93
2017-12-01T10:08:08.835Z,77.07
2017-12-01T10:13:09.610Z,75.57
2017-12-01T10:18:10.395Z,72.89
2017-12-01T10:23:11.157Z,72.98
2017-12-01T10:28:11.945Z,73.31
2017-12-01T10:33:12.724Z,72.63
2017-12-01T10:38:13.530Z,72.74
2017-12-01T10:43:14.327Z,74.13
2017-12-01T10:48:15.119Z,74.37
2017-12-01T10:53:15.890Z,73.25
2017-12-01T10:58:16.717Z,74.74
2017-12-01T11:03:17.506Z,75.25
2017-12-01T11:13:25.990Z,72.84
2017-12-01T11:18:26.775Z,72.40
2017-12-01T11:23:27.560Z,73.75
2017-12-01T11:28:28.424Z,70.57
2017-12-01T11:33:29.205Z,70.19
2017-12-01T11:38:29.994Z,71.46
2017-12-01T11:43:30.785Z,70.50
2017-12-01T11:48:31.552Z,70.20
2017-12-01T11:53:32.361Z,70.90
2017-12-01T11:58:33.125Z,71.51
2017-12-01T12:03:33.937Z,70.16
2017-12-01T12:08:34.741Z,69.53
2017-12-01T12:13:35.525Z,71.35
2017-12-01T12:18:36.321Z,70.20
2017-12-01T12:23:37.130Z,70.16
2017-12-01T12:28:37.936Z,69.62
2017-12-01T12:33:38.726Z,70.49
2017-12-01T12:38:39.550Z,69.41
2017-12-01T12:43:40.338Z,69.58
2017-12-01T12:48:48.321Z,69.73
2017-12-01T12:53:49.121Z,70.64
2017-12-01T12:58:49.913Z,71.26
2017-12-01T13:03:50.784Z,71.30
2017-12-01T13:08:51.553Z,72.82
2017-12-01T13:13:52.335Z,74.04
2017-12-01T13:18:53.122Z,74.09
2017-12-01T13:23:53.933Z,74.95
2017-12-01T13:28:54.765Z,74.21
2017-12-01T13:33:55.568Z,73.44
2017-12-01T13:38:56.380Z,74.21
2017-12-01T13:43:57.189Z,75.57
2017-12-01T13:48:57.978Z,75.37
2017-12-01T13:53:58.962Z,75.60
2017-12-01T13:58:59.771Z,75.52
2017-12-01T14:04:10.885Z,75.64
2017-12-01T14:09:11.662Z,75.30
2017-12-01T14:14:12.482Z,75.93
2017-12-01T14:19:13.237Z,75.71
2017-12-01T14:24:14.044Z,77.11
2017-12-01T14:29:14.827Z,77.76
2017-12-01T14:34:15.605Z,78.16
2017-12-01T14:39:16.392Z,79.28
2017-12-01T14:44:17.212Z,79.72
2017-12-01T14:49:19.987Z,80.14
2017-12-01T14:54:31.688Z,80.56
2017-12-01T14:59:36.729Z,80.45
2017-12-01T15:04:37.514Z,81.60
2017-12-01T15:09:38.301Z,81.86
2017-12-01T15:14:39.185Z,82.55
2017-12-01T15:19:39.967Z,83.64
2017-12-01T15:24:40.772Z,85.09
2017-12-01T15:29:42.401Z,86.12
2017-12-01T15:34:43.219Z,87.35
2017-12-01T15:39:44.041Z,87.41
2017-12-01T15:44:44.859Z,87.72
2017-12-01T15:49:48.685Z,88.65
2017-12-01T15:54:49.497Z,89.08
2017-12-01T15:59:50.312Z,89.23
2017-12-01T16:04:51.129Z,89.52
2017-12-01T16:09:51.959Z,90.06
2017-12-01T16:14:52.807Z,90.36
2017-12-01T16:19:53.618Z,90.69
2017-12-01T16:24:54.437Z,91.55
2017-12-01T16:29:55.453Z,91.53
2017-12-01T16:34:56.259Z,90.63
2017-12-01T16:39:57.072Z,91.06
2017-12-01T16:44:57.907Z,91.59
2017-12-01T16:49:58.681Z,91.83
2017-12-01T16:54:59.469Z,91.61
2017-12-01T17:00:03.634Z,91.83
2017-12-01T17:05:04.417Z,92.18
2017-12-01T17:10:05.244Z,92.35
2017-12-01T17:15:06.077Z,92.32
2017-12-01T17:20:06.893Z,92.34
2017-12-01T17:25:07.705Z,92.63
2017-12-01T17:30:08.527Z,92.07
2017-12-01T17:35:09.333Z,92.18
2017-12-01T17:40:10.114Z,92.47
2017-12-01T17:45:10.881Z,93.03
2017-12-01T17:50:11.914Z,93.55
2017-12-01T17:55:12.713Z,92.64
2017-12-01T18:00:13.521Z,91.72
2017-12-01T18:05:14.343Z,92.01
2017-12-01T18:10:15.111Z,92.39
2017-12-01T18:15:15.886Z,92.66
2017-12-01T18:20:16.656Z,92.89
2017-12-01T18:25:17.446Z,93.18
2017-12-01T18:30:18.244Z,93.35
2017-12-01T18:35:19.045Z,93.42
2017-12-01T18:40:19.898Z,93.61
2017-12-01T18:45:20.709Z,93.68
2017-12-01T18:50:22.485Z,93.94
2017-12-01T18:55:23.290Z,93.96
2017-12-01T19:00:24.097Z,94.10
2017-12-01T19:05:24.917Z,94.14
2017-12-01T19:10:25.737Z,94.36
2017-12-01T19:15:26.575Z,94.36
2017-12-01T19:20:27.369Z,94.60
2017-12-01T19:25:28.214Z,94.54
2017-12-01T19:30:29.061Z,94.77
2017-12-01T19:35:29.931Z,94.74
2017-12-01T19:40:30.778Z,94.81
2017-12-01T19:45:31.584Z,94.93
2017-12-01T19:50:32.393Z,95.02
2017-12-01T19:55:33.202Z,94.77
2017-12-01T20:00:33.974Z,94.83
2017-12-01T20:05:34.773Z,94.88
2017-12-01T20:10:35.575Z,95.00
2017-12-01T20:15:36.397Z,95.07
2017-12-01T20:20:37.203Z,95.05
2017-12-01T20:25:38.021Z,95.12
2017-12-01T20:30:38.869Z,95.41
2017-12-01T20:35:39.674Z,95.37
2017-12-01T20:40:40.461Z,95.27
2017-12-01T20:45:41.238Z,95.31
2017-12-01T20:50:42.050Z,95.17
2017-12-01T20:55:42.846Z,95.32
2017-12-01T21:00:43.691Z,95.47
2017-12-01T21:05:44.482Z,95.59
2017-12-01T21:10:45.269Z,95.73
2017-12-01T21:15:46.099Z,95.84
2017-12-01T21:20:46.901Z,95.71
2017-12-01T21:25:47.764Z,95.68
2017-12-01T21:30:48.554Z,95.67
2017-12-01T21:35:49.347Z,95.73
2017-12-01T21:40:50.167Z,95.64
2017-12-01T21:45:50.965Z,95.56
2017-12-01T21:50:51.761Z,95.56
2017-12-01T21:55:52.524Z,95.68
2017-12-01T22:00:53.330Z,95.72
2017-12-01T22:05:54.169Z,95.64
2017-12-01T22:10:54.992Z,95.53
2017-12-01T22:15:55.777Z,95.65
2017-12-01T22:20:56.570Z,95.48
2017-12-01T22:25:57.454Z,95.50
2017-12-01T22:30:58.509Z,95.24
2017-12-01T22:35:59.277Z,95.29
2017-12-01T22:41:00.105Z,95.49
2017-12-01T22:46:00.882Z,95.46
2017-12-01T22:51:01.655Z,95.46
2017-12-01T22:56:02.449Z,95.36
2017-12-01T23:01:03.242Z,95.14
2017-12-01T23:06:04.052Z,95.21
2017-12-01T23:11:04.898Z,94.94
2017-12-01T23:16:05.687Z,95.11
2017-12-01T23:21:06.441Z,94.90
2017-12-01T23:26:07.226Z,94.87
2017-12-01T23:31:08.010Z,95.17
2017-12-01T23:36:08.797Z,95.24
2017-12-01T23:41:09.610Z,95.31
2017-12-01T23:46:10.396Z,95.43
2017-12-01T23:51:11.162Z,95.43
2017-12-01T23:56:11.969Z,95.41
